createdAt,value
2022-09-11T00:02:27.065Z,23.09
2022-09-11T00:04:58.412Z,23.17
2022-09-11T00:07:28.154Z,23.09
2022-09-11T00:09:57.981Z,23.05
2022-09-11T00:12:28.230Z,23.09
2022-09-11T00:14:57.934Z,23.07
2022-09-11T00:17:27.683Z,23.06
2022-09-11T00:20:00.948Z,23.00
2022-09-11T00:22:30.695Z,23.08
2022-09-11T00:25:00.522Z,23.05
2022-09-11T00:27:30.286Z,23.07
2022-09-11T00:30:00.240Z,23.05
2022-09-11T00:32:30.032Z,23.04
2022-09-11T00:35:01.621Z,22.97
2022-09-11T00:37:31.389Z,22.95
2022-09-11T00:40:01.250Z,22.86
2022-09-11T00:42:31.380Z,22.84
2022-09-11T00:45:06.580Z,22.84
2022-09-11T00:47:37.238Z,22.85
2022-09-11T00:50:15.088Z,22.81
2022-09-11T00:52:53.200Z,22.75
2022-09-11T00:55:27.992Z,22.80
2022-09-11T00:58:01.355Z,22.75
2022-09-11T01:00:31.489Z,22.76
2022-09-11T01:03:03.234Z,22.85
2022-09-11T01:05:38.110Z,22.73
2022-09-11T01:08:08.577Z,22.77
2022-09-11T01:10:51.556Z,22.73
2022-09-11T01:13:30.779Z,22.76
2022-09-11T01:16:10.703Z,22.74
2022-09-11T01:18:47.604Z,22.80
2022-09-11T01:21:39.007Z,22.74
2022-09-11T01:24:24.793Z,22.63
2022-09-11T01:27:27.206Z,22.76
2022-09-11T01:30:02.607Z,22.74
2022-09-11T01:32:40.518Z,22.71
2022-09-11T01:35:17.341Z,22.71
2022-09-11T01:37:53.848Z,22.72
2022-09-11T01:40:28.368Z,22.73
2022-09-11T01:43:06.201Z,22.69
2022-09-11T01:45:38.364Z,22.72
2022-09-11T01:48:09.843Z,22.71
2022-09-11T01:50:45.891Z,22.66
2022-09-11T01:53:19.179Z,22.59
2022-09-11T01:55:55.516Z,22.58
2022-09-11T01:58:29.925Z,22.61
2022-09-11T02:01:06.233Z,22.60
2022-09-11T02:03:39.338Z,22.57
2022-09-11T02:06:15.225Z,22.51
2022-09-11T02:08:50.201Z,22.55
2022-09-11T02:11:20.996Z,22.50
2022-09-11T02:13:58.432Z,22.39
2022-09-11T02:16:38.790Z,22.41
2022-09-11T02:19:13.732Z,22.41
2022-09-11T02:21:45.015Z,22.32
2022-09-11T02:24:15.762Z,22.37
2022-09-11T02:26:49.210Z,22.34
2022-09-11T02:29:21.119Z,22.35
2022-09-11T02:31:52.228Z,22.31
2022-09-11T02:34:26.946Z,22.22
2022-09-11T02:37:17.008Z,22.11
2022-09-11T02:40:06.198Z,22.11
2022-09-11T02:42:50.783Z,22.04
2022-09-11T02:45:35.664Z,22.04
2022-09-11T02:48:24.487Z,22.02
2022-09-11T02:51:04.087Z,21.96
2022-09-11T02:53:39.477Z,21.95
2022-09-11T02:56:16.897Z,21.99
2022-09-11T02:58:55.554Z,21.89
2022-09-11T03:01:26.695Z,21.95
2022-09-11T03:03:56.529Z,21.86
2022-09-11T03:06:28.183Z,21.86
2022-09-11T03:08:58.656Z,21.89
2022-09-11T03:11:29.028Z,21.87
2022-09-11T03:13:58.943Z,21.96
2022-09-11T03:16:30.209Z,21.90
2022-09-11T03:19:00.172Z,21.82
2022-09-11T03:21:30.192Z,21.79
2022-09-11T03:24:00.021Z,21.81
2022-09-11T03:26:30.030Z,21.82
2022-09-11T03:29:00.172Z,21.79
2022-09-11T03:31:31.646Z,21.71
2022-09-11T03:34:01.534Z,21.76
2022-09-11T03:36:31.361Z,21.70
2022-09-11T03:39:01.319Z,21.71
2022-09-11T03:41:31.115Z,21.70
2022-09-11T03:44:02.073Z,21.70
2022-09-11T03:46:35.166Z,21.71
2022-09-11T03:49:06.118Z,21.76
2022-09-11T03:51:35.932Z,21.76
2022-09-11T03:54:06.264Z,21.78
2022-09-11T03:56:36.696Z,21.78
2022-09-11T03:59:06.424Z,21.76
2022-09-11T04:01:37.666Z,21.76
2022-09-11T04:04:07.523Z,21.78
2022-09-11T04:06:37.634Z,21.79
2022-09-11T04:09:07.393Z,21.80
2022-09-11T04:11:38.934Z,21.78
2022-09-11T04:14:09.237Z,21.82
2022-09-11T04:16:40.764Z,21.85
2022-09-11T04:19:11.359Z,21.82
2022-09-11T04:21:42.321Z,21.73
2022-09-11T04:24:12.269Z,21.74
2022-09-11T04:26:42.285Z,21.73
2022-09-11T04:29:12.015Z,21.67
2022-09-11T04:31:43.365Z,21.65
2022-09-11T04:34:13.196Z,21.70
2022-09-11T04:36:43.713Z,21.70
2022-09-11T04:39:13.506Z,21.71
2022-09-11T04:41:44.295Z,21.70
2022-09-11T04:44:16.036Z,21.76
2022-09-11T04:46:48.315Z,21.77
2022-09-11T04:49:18.335Z,21.58
2022-09-11T04:51:48.134Z,21.71
2022-09-11T04:54:21.248Z,21.67
2022-09-11T04:56:51.735Z,21.72
2022-09-11T04:59:24.261Z,21.64
2022-09-11T05:01:55.652Z,21.69
2022-09-11T05:04:26.389Z,21.73
2022-09-11T05:06:57.104Z,21.72
2022-09-11T05:09:27.714Z,21.71
2022-09-11T05:11:57.687Z,21.62
2022-09-11T05:14:28.217Z,21.69
2022-09-11T05:16:59.413Z,21.72
2022-09-11T05:19:29.356Z,21.85
2022-09-11T05:21:59.560Z,21.95
2022-09-11T05:24:29.713Z,21.97
2022-09-11T05:26:59.996Z,21.85
2022-09-11T05:29:32.577Z,21.73
2022-09-11T05:32:04.151Z,21.78
2022-09-11T05:34:34.192Z,21.84
2022-09-11T05:37:22.097Z,21.97
2022-09-11T05:39:52.878Z,22.11
2022-09-11T05:42:22.757Z,22.18
2022-09-11T05:44:52.657Z,22.30
2022-09-11T05:47:24.168Z,22.29
2022-09-11T05:49:54.104Z,22.23
2022-09-11T05:52:25.213Z,22.21
2022-09-11T05:54:55.057Z,22.33
2022-09-11T05:57:25.149Z,22.28
2022-09-11T05:59:55.208Z,22.47
2022-09-11T06:02:26.755Z,22.63
2022-09-11T06:04:56.872Z,22.80
2022-09-11T06:07:27.405Z,22.91
2022-09-11T06:10:02.366Z,23.02
2022-09-11T06:12:32.864Z,23.18
2022-09-11T06:15:02.918Z,23.14
2022-09-11T06:17:34.236Z,23.22
2022-09-11T06:20:04.829Z,23.34
2022-09-11T06:22:37.673Z,23.27
2022-09-11T06:25:09.342Z,23.36
2022-09-11T06:27:44.135Z,23.47
2022-09-11T06:30:15.155Z,23.52
2022-09-11T06:32:49.445Z,23.65
2022-09-11T06:35:19.163Z,23.70
2022-09-11T06:37:48.910Z,23.62
2022-09-11T06:40:19.100Z,23.64
2022-09-11T06:42:48.967Z,23.67
2022-09-11T06:45:19.169Z,23.62
2022-09-11T06:47:50.295Z,23.78
2022-09-11T06:50:20.105Z,23.91
2022-09-11T06:52:52.151Z,23.94
2022-09-11T06:55:22.468Z,23.80
2022-09-11T06:57:52.345Z,23.70
2022-09-11T07:00:22.123Z,23.75
2022-09-11T07:02:54.232Z,23.65
2022-09-11T07:05:24.656Z,23.71
2022-09-11T07:07:55.493Z,23.98
2022-09-11T07:10:26.022Z,24.07
2022-09-11T07:12:56.863Z,24.24
2022-09-11T07:15:26.588Z,24.19
2022-09-11T07:17:58.038Z,24.20
2022-09-11T07:20:27.812Z,24.21
2022-09-11T07:22:58.544Z,24.09
2022-09-11T07:25:28.466Z,24.06
2022-09-11T07:27:58.360Z,23.93
2022-09-11T07:30:28.217Z,23.95
2022-09-11T07:32:59.407Z,23.92
2022-09-11T07:35:29.237Z,24.02
2022-09-11T07:37:59.731Z,24.10
2022-09-11T07:40:31.367Z,24.31
2022-09-11T07:43:01.833Z,24.25
2022-09-11T07:45:32.421Z,24.31
2022-09-11T07:48:03.865Z,24.24
2022-09-11T07:50:34.186Z,24.20
2022-09-11T07:53:04.073Z,24.17
2022-09-11T07:55:35.477Z,24.32
2022-09-11T07:58:05.624Z,24.50
2022-09-11T08:00:37.250Z,24.74
2022-09-11T08:03:08.626Z,24.76
2022-09-11T08:05:38.394Z,24.83
2022-09-11T08:08:08.229Z,25.03
2022-09-11T08:10:41.117Z,25.20
2022-09-11T08:13:12.605Z,25.16
2022-09-11T08:15:47.586Z,25.13
2022-09-11T08:18:19.155Z,25.24
2022-09-11T08:20:49.123Z,25.41
2022-09-11T08:23:18.981Z,25.47
2022-09-11T08:25:50.992Z,25.47
2022-09-11T08:28:20.731Z,25.60
2022-09-11T08:30:50.593Z,25.62
2022-09-11T08:33:21.816Z,25.56
2022-09-11T08:35:51.863Z,25.42
2022-09-11T08:38:24.531Z,25.49
2022-09-11T08:40:55.278Z,25.64
2022-09-11T08:43:32.407Z,25.80
2022-09-11T08:46:06.276Z,25.78
2022-09-11T08:48:49.119Z,25.86
2022-09-11T08:51:19.425Z,25.92
2022-09-11T08:53:49.766Z,25.84
2022-09-11T08:56:23.605Z,25.75
2022-09-11T08:59:11.230Z,25.78
2022-09-11T09:01:48.172Z,25.95
2022-09-11T09:04:39.437Z,25.94
2022-09-11T09:07:18.562Z,25.92
2022-09-11T09:10:16.449Z,25.82
2022-09-11T09:12:54.319Z,25.75
2022-09-11T09:15:39.724Z,25.71
2022-09-11T09:18:14.746Z,25.70
2022-09-11T09:20:51.328Z,25.64
2022-09-11T09:23:25.643Z,25.62
2022-09-11T09:25:57.849Z,25.63
2022-09-11T09:28:35.994Z,25.66
2022-09-11T09:31:09.913Z,25.66
2022-09-11T09:33:45.143Z,25.55
2022-09-11T09:36:20.456Z,25.89
2022-09-11T09:38:50.617Z,25.93
2022-09-11T09:41:50.694Z,26.00
2022-09-11T09:44:30.436Z,26.01
2022-09-11T09:47:01.108Z,26.04
2022-09-11T09:49:34.317Z,26.28
2022-09-11T09:52:19.203Z,26.17
2022-09-11T09:54:56.089Z,26.26
2022-09-11T09:57:31.332Z,26.34
2022-09-11T10:00:06.461Z,26.42
2022-09-11T10:02:41.059Z,26.44
2022-09-11T10:05:20.716Z,26.52
2022-09-11T10:07:53.875Z,26.59
2022-09-11T10:10:30.079Z,26.51
2022-09-11T10:13:18.709Z,26.50
2022-09-11T10:15:50.659Z,26.61
2022-09-11T10:18:42.500Z,26.72
2022-09-11T10:21:21.213Z,26.85
2022-09-11T10:23:54.809Z,26.92
2022-09-11T10:26:30.072Z,26.84
2022-09-11T10:29:07.767Z,26.71
2022-09-11T10:31:41.173Z,26.74
2022-09-11T10:34:16.261Z,26.77
2022-09-11T10:36:54.044Z,27.05
2022-09-11T10:39:27.754Z,27.34
2022-09-11T10:41:59.633Z,27.43
2022-09-11T10:44:30.801Z,27.67
2022-09-11T10:47:06.497Z,27.72
2022-09-11T10:49:36.471Z,27.72
2022-09-11T10:52:18.862Z,27.73
2022-09-11T10:55:00.179Z,27.61
2022-09-11T10:57:35.060Z,27.47
2022-09-11T11:00:13.203Z,27.37
2022-09-11T11:02:46.688Z,27.24
2022-09-11T11:05:22.600Z,27.19
2022-09-11T11:08:15.185Z,26.88
2022-09-11T11:11:04.059Z,27.08
2022-09-11T11:13:45.332Z,27.19
2022-09-11T11:16:23.104Z,27.47
2022-09-11T11:19:06.779Z,27.55
2022-09-11T11:21:52.304Z,27.52
2022-09-11T11:24:36.765Z,27.70
2022-09-11T11:27:29.998Z,27.74
2022-09-11T11:30:17.809Z,27.72
2022-09-11T11:33:17.370Z,27.70
2022-09-11T11:35:57.905Z,27.62
2022-09-11T11:38:33.459Z,27.76
2022-09-11T11:41:09.784Z,27.66
2022-09-11T11:43:43.545Z,27.65
2022-09-11T11:46:19.815Z,27.80
2022-09-11T11:48:54.785Z,27.71
2022-09-11T11:51:28.091Z,27.59
2022-09-11T11:54:05.697Z,27.51
2022-09-11T11:56:41.165Z,27.45
2022-09-11T11:59:16.863Z,27.49
2022-09-11T12:01:57.197Z,27.76
2022-09-11T12:04:42.173Z,27.85
2022-09-11T12:07:17.259Z,27.80
2022-09-11T12:09:49.474Z,27.90
2022-09-11T12:12:21.043Z,27.88
2022-09-11T12:14:55.059Z,27.56
2022-09-11T12:17:28.441Z,27.45
2022-09-11T12:20:18.779Z,27.43
2022-09-11T12:22:50.311Z,27.48
2022-09-11T12:25:51.144Z,27.44
2022-09-11T12:28:26.068Z,27.49
2022-09-11T12:31:02.932Z,27.49
2022-09-11T12:33:56.314Z,27.40
2022-09-11T12:36:36.127Z,27.48
2022-09-11T12:39:18.577Z,27.54
2022-09-11T12:41:49.208Z,27.54
2022-09-11T12:44:34.035Z,27.54
2022-09-11T12:47:16.432Z,27.55
2022-09-11T12:49:55.800Z,27.60
2022-09-11T12:52:36.864Z,27.42
2022-09-11T12:55:27.845Z,27.33
2022-09-11T12:58:02.497Z,27.35
2022-09-11T13:00:38.380Z,27.43
2022-09-11T13:03:18.980Z,27.50
2022-09-11T13:05:55.412Z,27.45
2022-09-11T13:08:28.872Z,27.45
2022-09-11T13:11:31.862Z,27.54
2022-09-11T13:14:02.167Z,27.51
2022-09-11T13:16:34.853Z,27.55
2022-09-11T13:19:14.602Z,27.50
2022-09-11T13:21:45.918Z,27.42
2022-09-11T13:24:25.395Z,27.39
2022-09-11T13:26:59.783Z,27.39
2022-09-11T13:29:32.501Z,27.37
2022-09-11T13:32:11.404Z,27.36
2022-09-11T13:34:47.086Z,27.37
2022-09-11T13:37:31.270Z,27.29
2022-09-11T13:40:04.182Z,27.21
2022-09-11T13:42:35.253Z,27.24
2022-09-11T13:45:06.852Z,27.22
2022-09-11T13:47:42.303Z,27.23
2022-09-11T13:50:15.538Z,27.19
2022-09-11T13:52:46.977Z,27.13
2022-09-11T13:55:20.228Z,27.22
2022-09-11T13:57:54.263Z,27.22
2022-09-11T14:00:55.431Z,27.21
2022-09-11T14:03:28.815Z,27.23
2022-09-11T14:06:00.890Z,27.05
2022-09-11T14:08:34.376Z,26.97
2022-09-11T14:11:11.178Z,27.14
2022-09-11T14:13:46.041Z,27.17
2022-09-11T14:16:25.362Z,27.18
2022-09-11T14:19:00.254Z,27.19
2022-09-11T14:21:35.520Z,27.13
2022-09-11T14:24:25.326Z,27.12
2022-09-11T14:26:58.277Z,27.12
2022-09-11T14:29:30.852Z,27.04
2022-09-11T14:32:31.175Z,27.08
2022-09-11T14:35:01.786Z,27.00
2022-09-11T14:37:34.643Z,26.99
2022-09-11T14:40:07.465Z,26.98
2022-09-11T14:42:37.872Z,26.97
2022-09-11T14:45:10.598Z,26.90
2022-09-11T14:47:40.545Z,26.90
2022-09-11T14:50:13.228Z,26.85
2022-09-11T14:52:44.774Z,26.76
2022-09-11T14:55:15.826Z,26.82
2022-09-11T14:57:46.660Z,26.79
2022-09-11T15:00:18.272Z,26.77
2022-09-11T15:02:48.376Z,26.79
2022-09-11T15:05:22.960Z,26.75
2022-09-11T15:07:54.363Z,26.92
2022-09-11T15:10:24.236Z,26.88
2022-09-11T15:12:55.864Z,26.81
2022-09-11T15:15:27.600Z,26.74
2022-09-11T15:17:58.171Z,26.69
2022-09-11T15:20:28.546Z,26.64
2022-09-11T15:23:00.814Z,26.63
2022-09-11T15:25:32.755Z,26.52
2022-09-11T15:28:02.800Z,26.44
2022-09-11T15:30:32.544Z,26.35
2022-09-11T15:33:02.288Z,26.27
2022-09-11T15:35:33.021Z,26.21
2022-09-11T15:38:05.649Z,26.01
2022-09-11T15:40:36.636Z,25.95
2022-09-11T15:43:06.776Z,25.80
2022-09-11T15:45:43.707Z,25.73
2022-09-11T15:48:14.764Z,25.67
2022-09-11T15:50:45.523Z,25.52
2022-09-11T15:53:16.687Z,25.49
2022-09-11T15:55:46.638Z,25.41
2022-09-11T15:58:16.620Z,25.32
2022-09-11T16:00:46.956Z,25.25
2022-09-11T16:03:16.696Z,25.23
2022-09-11T16:05:46.483Z,25.16
2022-09-11T16:08:17.918Z,25.14
2022-09-11T16:10:48.024Z,25.14
2022-09-11T16:13:18.389Z,25.06
2022-09-11T16:15:49.680Z,25.06
2022-09-11T16:18:19.777Z,25.00
2022-09-11T16:20:58.057Z,24.94
2022-09-11T16:23:29.412Z,24.92
2022-09-11T16:26:04.065Z,24.86
2022-09-11T16:28:34.919Z,24.86
2022-09-11T16:31:06.812Z,24.82
2022-09-11T16:33:40.813Z,24.78
2022-09-11T16:36:17.097Z,24.78
2022-09-11T16:38:50.269Z,24.72
2022-09-11T16:41:23.612Z,24.66
2022-09-11T16:43:55.062Z,24.66
2022-09-11T16:46:27.096Z,24.63
2022-09-11T16:49:01.627Z,24.60
2022-09-11T16:51:31.897Z,24.58
2022-09-11T16:54:04.150Z,24.58
2022-09-11T16:56:34.398Z,24.46
2022-09-11T16:59:04.351Z,24.41
2022-09-11T17:01:34.531Z,24.38
2022-09-11T17:04:04.898Z,24.34
2022-09-11T17:06:34.890Z,24.31
2022-09-11T17:09:06.314Z,24.28
2022-09-11T17:11:37.192Z,24.18
2022-09-11T17:14:08.221Z,24.14
2022-09-11T17:16:39.715Z,24.11
2022-09-11T17:19:10.895Z,24.12
2022-09-11T17:21:41.444Z,23.95
2022-09-11T17:24:13.186Z,23.95
2022-09-11T17:26:43.075Z,23.85
2022-09-11T17:29:13.112Z,23.81
2022-09-11T17:31:42.990Z,23.87
2022-09-11T17:34:12.811Z,23.86
2022-09-11T17:36:43.335Z,23.88
2022-09-11T17:39:14.559Z,23.77
2022-09-11T17:41:44.974Z,23.73
2022-09-11T17:44:15.564Z,23.77
2022-09-11T17:46:47.239Z,23.77
2022-09-11T17:49:17.257Z,23.71
2022-09-11T17:51:47.213Z,23.64
2022-09-11T17:54:18.920Z,23.69
2022-09-11T17:56:48.914Z,23.64
2022-09-11T17:59:18.776Z,23.65
2022-09-11T18:01:48.995Z,23.68
2022-09-11T18:04:18.964Z,23.71
2022-09-11T18:06:48.886Z,23.74
2022-09-11T18:09:20.559Z,23.64
2022-09-11T18:11:53.920Z,23.65
2022-09-11T18:14:23.715Z,23.70
2022-09-11T18:16:53.358Z,23.65
2022-09-11T18:19:24.643Z,23.68
2022-09-11T18:21:55.174Z,23.69
2022-09-11T18:24:29.819Z,23.58
2022-09-11T18:27:01.193Z,23.62
2022-09-11T18:29:31.153Z,23.54
2022-09-11T18:32:01.101Z,23.55
2022-09-11T18:34:31.330Z,23.45
2022-09-11T18:37:01.101Z,23.41
2022-09-11T18:39:33.898Z,23.37
2022-09-11T18:42:06.286Z,23.33
2022-09-11T18:44:36.831Z,23.33
2022-09-11T18:47:07.364Z,23.30
2022-09-11T18:49:37.850Z,23.21
2022-09-11T18:52:08.843Z,23.14
2022-09-11T18:54:40.049Z,23.17
2022-09-11T18:57:10.067Z,23.19
2022-09-11T18:59:40.010Z,23.12
2022-09-11T19:02:10.882Z,22.76
2022-09-11T19:04:41.202Z,23.04
2022-09-11T19:07:12.001Z,23.09
2022-09-11T19:09:46.001Z,23.02
2022-09-11T19:12:16.848Z,23.07
2022-09-11T19:14:47.121Z,23.09
2022-09-11T19:17:16.841Z,23.09
2022-09-11T19:19:46.950Z,23.04
2022-09-11T19:22:16.966Z,22.87
2022-09-11T19:24:48.192Z,22.85
2022-09-11T19:27:18.255Z,22.91
2022-09-11T19:29:49.000Z,22.99
2022-09-11T19:32:18.991Z,22.99
2022-09-11T19:34:48.904Z,22.95
2022-09-11T19:37:20.208Z,23.03
2022-09-11T19:39:52.049Z,22.95
2022-09-11T19:42:21.801Z,22.97
2022-09-11T19:44:55.715Z,22.86
2022-09-11T19:47:26.488Z,22.77
2022-09-11T19:49:56.225Z,22.78
2022-09-11T19:52:29.711Z,22.63
2022-09-11T19:55:03.948Z,22.46
2022-09-11T19:57:34.884Z,22.34
2022-09-11T20:00:05.629Z,22.11
2022-09-11T20:02:35.670Z,21.87
2022-09-11T20:05:05.744Z,21.68
2022-09-11T20:07:37.789Z,21.52
2022-09-11T20:10:10.570Z,21.44
2022-09-11T20:12:40.500Z,21.45
2022-09-11T20:15:11.568Z,21.40
2022-09-11T20:17:44.444Z,21.37
2022-09-11T20:20:14.832Z,21.31
2022-09-11T20:22:44.699Z,21.05
2022-09-11T20:25:16.013Z,20.99
2022-09-11T20:27:45.740Z,21.08
2022-09-11T20:30:15.859Z,21.09
2022-09-11T20:32:45.697Z,21.15
2022-09-11T20:35:15.919Z,21.19
2022-09-11T20:37:45.640Z,21.21
2022-09-11T20:40:17.018Z,21.08
2022-09-11T20:42:48.176Z,21.17
2022-09-11T20:45:18.137Z,21.08
2022-09-11T20:47:48.064Z,21.08
2022-09-11T20:50:18.238Z,21.13
2022-09-11T20:52:47.944Z,21.14
2022-09-11T20:55:19.184Z,21.14
2022-09-11T20:57:48.929Z,21.24
2022-09-11T21:00:18.694Z,21.24
2022-09-11T21:02:48.527Z,21.19
2022-09-11T21:05:18.401Z,21.15
2022-09-11T21:07:48.304Z,21.30
2022-09-11T21:10:19.436Z,21.33
2022-09-11T21:12:49.186Z,21.21
2022-09-11T21:15:18.917Z,20.99
2022-09-11T21:17:50.029Z,20.85
2022-09-11T21:20:19.890Z,20.74
2022-09-11T21:22:49.591Z,20.68
2022-09-11T21:25:20.964Z,20.76
2022-09-11T21:27:50.693Z,20.75
2022-09-11T21:30:21.775Z,20.60
2022-09-11T21:32:53.201Z,20.46
2022-09-11T21:35:23.183Z,20.25
2022-09-11T21:37:52.920Z,20.19
2022-09-11T21:40:24.489Z,20.19
2022-09-11T21:42:54.217Z,20.18
2022-09-11T21:45:24.296Z,20.02
2022-09-11T21:47:54.047Z,19.98
2022-09-11T21:50:24.172Z,19.97
2022-09-11T21:52:54.955Z,19.88
2022-09-11T21:55:28.082Z,19.81
2022-09-11T21:57:59.170Z,19.78
2022-09-11T22:00:28.982Z,19.56
2022-09-11T22:02:59.306Z,19.72
2022-09-11T22:05:30.005Z,19.51
2022-09-11T22:08:01.754Z,19.49
2022-09-11T22:10:32.995Z,19.57
2022-09-11T22:13:03.536Z,19.64
2022-09-11T22:15:33.391Z,19.46
2022-09-11T22:18:03.192Z,19.38
2022-09-11T22:20:33.258Z,19.30
2022-09-11T22:23:03.267Z,19.19
2022-09-11T22:25:36.959Z,19.11
2022-09-11T22:28:07.066Z,19.18
2022-09-11T22:30:37.161Z,19.23
2022-09-11T22:33:06.970Z,19.28
2022-09-11T22:35:37.239Z,18.96
2022-09-11T22:38:07.106Z,19.17
2022-09-11T22:40:38.727Z,19.34
2022-09-11T22:43:08.545Z,19.21
2022-09-11T22:45:38.417Z,19.33
2022-09-11T22:48:08.383Z,19.06
2022-09-11T22:50:38.432Z,19.17
2022-09-11T22:53:08.178Z,19.05
2022-09-11T22:55:44.187Z,18.94
2022-09-11T22:58:14.721Z,19.03
2022-09-11T23:00:45.724Z,18.76
2022-09-11T23:03:15.621Z,18.96
2022-09-11T23:06:02.760Z,19.00
2022-09-11T23:08:38.903Z,18.93
2022-09-11T23:11:11.526Z,18.99
2022-09-11T23:13:41.418Z,18.97
2022-09-11T23:16:15.678Z,19.16
2022-09-11T23:18:47.332Z,19.16
2022-09-11T23:21:17.925Z,19.14
2022-09-11T23:23:54.262Z,19.06
2022-09-11T23:26:27.081Z,19.10
2022-09-11T23:28:56.830Z,19.02
2022-09-11T23:31:29.142Z,19.16
2022-09-11T23:34:00.818Z,18.96
2022-09-11T23:36:32.017Z,19.07
2022-09-11T23:39:02.741Z,19.11
2022-09-11T23:41:34.025Z,19.02
2022-09-11T23:44:04.487Z,18.97
2022-09-11T23:46:34.815Z,18.84
2022-09-11T23:49:06.322Z,18.89
2022-09-11T23:51:36.118Z,18.80
2022-09-11T23:54:05.988Z,18.95
2022-09-11T23:56:37.099Z,18.94
2022-09-11T23:59:07.577Z,19.04
